sensor_id;sensor_type;location;lat;lon;timestamp;temperature;humidity
6843;DHT22;3460;52.028;8.916;2023-04-24T00:01:09;12.10;99.90
6843;DHT22;3460;52.028;8.916;2023-04-24T00:03:37;12.10;99.90
6843;DHT22;3460;52.028;8.916;2023-04-24T00:06:04;12.10;99.90
6843;DHT22;3460;52.028;8.916;2023-04-24T00:08:32;12.20;99.90
6843;DHT22;3460;52.028;8.916;2023-04-24T00:10:59;12.10;99.90
6843;DHT22;3460;52.028;8.916;2023-04-24T00:13:26;12.00;99.90
6843;DHT22;3460;52.028;8.916;2023-04-24T00:15:53;12.00;99.90
6843;DHT22;3460;52.028;8.916;2023-04-24T00:18:20;12.00;99.90
6843;DHT22;3460;52.028;8.916;2023-04-24T00:20:49;11.90;99.90
6843;DHT22;3460;52.028;8.916;2023-04-24T00:23:15;12.00;99.90
6843;DHT22;3460;52.028;8.916;2023-04-24T00:25:42;11.90;99.90
6843;DHT22;3460;52.028;8.916;2023-04-24T00:28:09;11.90;99.90
6843;DHT22;3460;52.028;8.916;2023-04-24T00:30:36;11.80;99.90
6843;DHT22;3460;52.028;8.916;2023-04-24T00:33:03;11.80;99.90
6843;DHT22;3460;52.028;8.916;2023-04-24T00:35:29;11.80;99.90
6843;DHT22;3460;52.028;8.916;2023-04-24T00:37:58;11.80;99.90
6843;DHT22;3460;52.028;8.916;2023-04-24T00:40:25;11.80;99.90
6843;DHT22;3460;52.028;8.916;2023-04-24T00:42:51;11.70;99.90
6843;DHT22;3460;52.028;8.916;2023-04-24T00:45:18;11.60;99.90
6843;DHT22;3460;52.028;8.916;2023-04-24T00:47:46;11.60;99.90
6843;DHT22;3460;52.028;8.916;2023-04-24T00:50:15;11.60;99.90
6843;DHT22;3460;52.028;8.916;2023-04-24T00:52:42;11.60;99.90
6843;DHT22;3460;52.028;8.916;2023-04-24T00:55:11;11.50;99.90
6843;DHT22;3460;52.028;8.916;2023-04-24T00:57:38;11.50;99.90
6843;DHT22;3460;52.028;8.916;2023-04-24T01:00:06;11.50;99.90
6843;DHT22;3460;52.028;8.916;2023-04-24T01:02:36;11.50;99.90
6843;DHT22;3460;52.028;8.916;2023-04-24T01:05:06;11.50;99.90
6843;DHT22;3460;52.028;8.916;2023-04-24T01:07:33;11.50;99.90
6843;DHT22;3460;52.028;8.916;2023-04-24T01:10:00;11.50;99.90
6843;DHT22;3460;52.028;8.916;2023-04-24T01:12:28;11.40;99.90
6843;DHT22;3460;52.028;8.916;2023-04-24T01:14:56;11.50;99.90
6843;DHT22;3460;52.028;8.916;2023-04-24T01:17:23;11.50;99.90
6843;DHT22;3460;52.028;8.916;2023-04-24T01:19:50;11.50;99.90
6843;DHT22;3460;52.028;8.916;2023-04-24T01:22:20;11.50;99.90
6843;DHT22;3460;52.028;8.916;2023-04-24T01:24:47;11.40;99.90
6843;DHT22;3460;52.028;8.916;2023-04-24T01:27:14;11.40;99.90
6843;DHT22;3460;52.028;8.916;2023-04-24T01:29:41;11.50;99.90
6843;DHT22;3460;52.028;8.916;2023-04-24T01:32:08;11.50;99.90
6843;DHT22;3460;52.028;8.916;2023-04-24T01:34:35;11.40;99.90
6843;DHT22;3460;52.028;8.916;2023-04-24T01:37:02;11.50;99.90
6843;DHT22;3460;52.028;8.916;2023-04-24T01:39:30;11.50;99.90
6843;DHT22;3460;52.028;8.916;2023-04-24T01:41:57;11.50;99.90
6843;DHT22;3460;52.028;8.916;2023-04-24T01:44:23;11.40;99.90
6843;DHT22;3460;52.028;8.916;2023-04-24T01:46:50;11.40;99.90
6843;DHT22;3460;52.028;8.916;2023-04-24T01:49:19;11.30;99.90
6843;DHT22;3460;52.028;8.916;2023-04-24T01:51:46;11.20;99.90
6843;DHT22;3460;52.028;8.916;2023-04-24T01:54:13;11.20;99.90
6843;DHT22;3460;52.028;8.916;2023-04-24T01:56:42;11.20;99.90
6843;DHT22;3460;52.028;8.916;2023-04-24T01:59:10;11.10;99.90
6843;DHT22;3460;52.028;8.916;2023-04-24T02:01:37;11.10;99.90
6843;DHT22;3460;52.028;8.916;2023-04-24T02:04:05;11.10;99.90
6843;DHT22;3460;52.028;8.916;2023-04-24T02:06:32;11.10;99.90
6843;DHT22;3460;52.028;8.916;2023-04-24T02:08:59;11.10;99.90
6843;DHT22;3460;52.028;8.916;2023-04-24T02:11:26;11.10;99.90
6843;DHT22;3460;52.028;8.916;2023-04-24T02:13:54;11.10;99.90
6843;DHT22;3460;52.028;8.916;2023-04-24T02:16:21;11.20;99.90
6843;DHT22;3460;52.028;8.916;2023-04-24T02:18:48;11.10;99.90
6843;DHT22;3460;52.028;8.916;2023-04-24T02:21:15;11.10;99.90
6843;DHT22;3460;52.028;8.916;2023-04-24T02:23:41;11.20;99.90
6843;DHT22;3460;52.028;8.916;2023-04-24T02:26:09;11.10;99.90
6843;DHT22;3460;52.028;8.916;2023-04-24T02:28:36;11.10;99.90
6843;DHT22;3460;52.028;8.916;2023-04-24T02:31:04;11.10;99.90
6843;DHT22;3460;52.028;8.916;2023-04-24T02:33:31;11.10;99.90
6843;DHT22;3460;52.028;8.916;2023-04-24T02:35:58;11.00;99.90
6843;DHT22;3460;52.028;8.916;2023-04-24T02:38:25;11.00;99.90
6843;DHT22;3460;52.028;8.916;2023-04-24T02:40:52;10.90;99.90
6843;DHT22;3460;52.028;8.916;2023-04-24T02:43:19;10.90;99.90
6843;DHT22;3460;52.028;8.916;2023-04-24T02:45:46;10.90;99.90
6843;DHT22;3460;52.028;8.916;2023-04-24T02:48:14;10.90;99.90
6843;DHT22;3460;52.028;8.916;2023-04-24T02:50:41;10.80;99.90
6843;DHT22;3460;52.028;8.916;2023-04-24T02:53:07;10.90;99.90
6843;DHT22;3460;52.028;8.916;2023-04-24T02:55:35;10.90;99.90
6843;DHT22;3460;52.028;8.916;2023-04-24T02:58:02;10.90;99.90
6843;DHT22;3460;52.028;8.916;2023-04-24T03:00:29;10.90;99.90
6843;DHT22;3460;52.028;8.916;2023-04-24T03:02:56;10.90;99.90
6843;DHT22;3460;52.028;8.916;2023-04-24T03:05:24;10.90;99.90
6843;DHT22;3460;52.028;8.916;2023-04-24T03:07:52;10.90;99.90
6843;DHT22;3460;52.028;8.916;2023-04-24T03:10:19;11.00;99.90
6843;DHT22;3460;52.028;8.916;2023-04-24T03:12:48;11.00;99.90
6843;DHT22;3460;52.028;8.916;2023-04-24T03:15:14;11.00;99.90
6843;DHT22;3460;52.028;8.916;2023-04-24T03:17:41;11.10;99.90
6843;DHT22;3460;52.028;8.916;2023-04-24T03:20:09;11.10;99.90
6843;DHT22;3460;52.028;8.916;2023-04-24T03:22:37;11.20;99.90
6843;DHT22;3460;52.028;8.916;2023-04-24T03:25:05;11.20;99.90
6843;DHT22;3460;52.028;8.916;2023-04-24T03:27:33;11.20;99.90
6843;DHT22;3460;52.028;8.916;2023-04-24T03:30:00;11.20;99.90
6843;DHT22;3460;52.028;8.916;2023-04-24T03:32:27;11.20;99.90
6843;DHT22;3460;52.028;8.916;2023-04-24T03:34:54;11.20;99.90
6843;DHT22;3460;52.028;8.916;2023-04-24T03:37:21;11.20;99.90
6843;DHT22;3460;52.028;8.916;2023-04-24T03:39:49;11.20;99.90
6843;DHT22;3460;52.028;8.916;2023-04-24T03:42:16;11.30;99.90
6843;DHT22;3460;52.028;8.916;2023-04-24T03:44:42;11.30;99.90
6843;DHT22;3460;52.028;8.916;2023-04-24T03:47:09;11.30;99.90
6843;DHT22;3460;52.028;8.916;2023-04-24T03:49:36;11.30;99.90
6843;DHT22;3460;52.028;8.916;2023-04-24T03:52:03;11.30;99.90
6843;DHT22;3460;52.028;8.916;2023-04-24T03:54:30;11.30;99.90
6843;DHT22;3460;52.028;8.916;2023-04-24T03:56:58;11.30;99.90
6843;DHT22;3460;52.028;8.916;2023-04-24T03:59:25;11.30;99.90
6843;DHT22;3460;52.028;8.916;2023-04-24T04:01:52;11.30;99.90
6843;DHT22;3460;52.028;8.916;2023-04-24T04:04:19;11.30;99.90
6843;DHT22;3460;52.028;8.916;2023-04-24T04:06:45;11.30;99.90
6843;DHT22;3460;52.028;8.916;2023-04-24T04:09:13;11.30;99.90
6843;DHT22;3460;52.028;8.916;2023-04-24T04:11:40;11.40;99.90
6843;DHT22;3460;52.028;8.916;2023-04-24T04:14:08;11.40;99.90
6843;DHT22;3460;52.028;8.916;2023-04-24T04:16:35;11.40;99.90
6843;DHT22;3460;52.028;8.916;2023-04-24T04:19:02;11.40;99.90
6843;DHT22;3460;52.028;8.916;2023-04-24T04:21:29;11.40;99.90
6843;DHT22;3460;52.028;8.916;2023-04-24T04:23:57;11.40;99.90
6843;DHT22;3460;52.028;8.916;2023-04-24T04:26:24;11.40;99.90
6843;DHT22;3460;52.028;8.916;2023-04-24T04:28:52;11.40;99.90
6843;DHT22;3460;52.028;8.916;2023-04-24T04:31:21;11.30;99.90
6843;DHT22;3460;52.028;8.916;2023-04-24T04:33:48;11.30;99.90
6843;DHT22;3460;52.028;8.916;2023-04-24T04:36:15;11.30;99.90
6843;DHT22;3460;52.028;8.916;2023-04-24T04:38:43;11.30;99.90
6843;DHT22;3460;52.028;8.916;2023-04-24T04:41:10;11.30;99.90
6843;DHT22;3460;52.028;8.916;2023-04-24T04:43:37;11.20;99.90
6843;DHT22;3460;52.028;8.916;2023-04-24T04:46:06;11.20;99.90
6843;DHT22;3460;52.028;8.916;2023-04-24T04:48:35;11.20;99.90
6843;DHT22;3460;52.028;8.916;2023-04-24T04:51:02;11.20;99.90
6843;DHT22;3460;52.028;8.916;2023-04-24T04:53:29;11.20;99.90
6843;DHT22;3460;52.028;8.916;2023-04-24T04:55:56;11.20;99.90
6843;DHT22;3460;52.028;8.916;2023-04-24T04:58:22;11.20;99.90
6843;DHT22;3460;52.028;8.916;2023-04-24T05:00:49;11.20;99.90
6843;DHT22;3460;52.028;8.916;2023-04-24T05:03:16;11.20;99.90
6843;DHT22;3460;52.028;8.916;2023-04-24T05:05:44;11.20;99.90
6843;DHT22;3460;52.028;8.916;2023-04-24T05:08:11;11.30;99.90
6843;DHT22;3460;52.028;8.916;2023-04-24T05:10:38;11.20;99.90
6843;DHT22;3460;52.028;8.916;2023-04-24T05:13:05;11.10;99.90
6843;DHT22;3460;52.028;8.916;2023-04-24T05:15:32;11.10;99.90
6843;DHT22;3460;52.028;8.916;2023-04-24T05:17:59;11.20;99.90
6843;DHT22;3460;52.028;8.916;2023-04-24T05:20:26;11.20;99.90
6843;DHT22;3460;52.028;8.916;2023-04-24T05:22:55;11.20;99.90
6843;DHT22;3460;52.028;8.916;2023-04-24T05:25:21;11.20;99.90
6843;DHT22;3460;52.028;8.916;2023-04-24T05:27:48;11.20;99.90
6843;DHT22;3460;52.028;8.916;2023-04-24T05:30:15;11.10;99.90
6843;DHT22;3460;52.028;8.916;2023-04-24T05:32:42;11.10;99.90
6843;DHT22;3460;52.028;8.916;2023-04-24T05:35:09;11.10;99.90
6843;DHT22;3460;52.028;8.916;2023-04-24T05:37:35;11.00;99.90
6843;DHT22;3460;52.028;8.916;2023-04-24T05:40:05;11.10;99.90
6843;DHT22;3460;52.028;8.916;2023-04-24T05:42:32;11.00;99.90
6843;DHT22;3460;52.028;8.916;2023-04-24T05:44:58;11.00;99.90
6843;DHT22;3460;52.028;8.916;2023-04-24T05:47:25;11.00;99.90
6843;DHT22;3460;52.028;8.916;2023-04-24T05:49:52;11.00;99.90
6843;DHT22;3460;52.028;8.916;2023-04-24T05:52:19;10.90;99.90
6843;DHT22;3460;52.028;8.916;2023-04-24T05:54:46;10.90;99.90
6843;DHT22;3460;52.028;8.916;2023-04-24T05:57:14;10.90;99.90
6843;DHT22;3460;52.028;8.916;2023-04-24T05:59:41;10.80;99.90
6843;DHT22;3460;52.028;8.916;2023-04-24T06:02:08;10.90;99.90
6843;DHT22;3460;52.028;8.916;2023-04-24T06:04:35;10.90;99.90
6843;DHT22;3460;52.028;8.916;2023-04-24T06:07:02;10.80;99.90
6843;DHT22;3460;52.028;8.916;2023-04-24T06:09:28;10.80;99.90
6843;DHT22;3460;52.028;8.916;2023-04-24T06:11:55;10.80;99.90
6843;DHT22;3460;52.028;8.916;2023-04-24T06:14:24;10.70;99.90
6843;DHT22;3460;52.028;8.916;2023-04-24T06:16:51;10.80;99.90
6843;DHT22;3460;52.028;8.916;2023-04-24T06:19:17;10.70;99.90
6843;DHT22;3460;52.028;8.916;2023-04-24T06:21:44;10.80;99.90
6843;DHT22;3460;52.028;8.916;2023-04-24T06:24:14;10.70;99.90
6843;DHT22;3460;52.028;8.916;2023-04-24T06:26:41;10.70;99.90
6843;DHT22;3460;52.028;8.916;2023-04-24T06:29:08;10.70;99.90
6843;DHT22;3460;52.028;8.916;2023-04-24T06:31:36;10.70;99.90
6843;DHT22;3460;52.028;8.916;2023-04-24T06:34:03;10.80;99.90
6843;DHT22;3460;52.028;8.916;2023-04-24T06:36:30;10.80;99.90
6843;DHT22;3460;52.028;8.916;2023-04-24T06:38:59;10.80;99.90
6843;DHT22;3460;52.028;8.916;2023-04-24T06:41:27;10.80;99.90
6843;DHT22;3460;52.028;8.916;2023-04-24T06:43:54;10.80;99.90
6843;DHT22;3460;52.028;8.916;2023-04-24T06:46:21;10.80;99.90
6843;DHT22;3460;52.028;8.916;2023-04-24T06:48:50;10.80;99.90
6843;DHT22;3460;52.028;8.916;2023-04-24T06:51:17;10.80;99.90
6843;DHT22;3460;52.028;8.916;2023-04-24T06:53:44;10.70;99.90
6843;DHT22;3460;52.028;8.916;2023-04-24T06:56:11;10.80;99.90
6843;DHT22;3460;52.028;8.916;2023-04-24T06:58:38;10.80;99.90
6843;DHT22;3460;52.028;8.916;2023-04-24T07:01:04;10.80;99.90
6843;DHT22;3460;52.028;8.916;2023-04-24T07:03:31;10.80;99.90
6843;DHT22;3460;52.028;8.916;2023-04-24T07:05:59;10.80;99.90
6843;DHT22;3460;52.028;8.916;2023-04-24T07:08:26;10.70;99.90
6843;DHT22;3460;52.028;8.916;2023-04-24T07:10:53;10.70;99.90
6843;DHT22;3460;52.028;8.916;2023-04-24T07:13:21;10.60;99.90
6843;DHT22;3460;52.028;8.916;2023-04-24T07:15:48;10.60;99.90
6843;DHT22;3460;52.028;8.916;2023-04-24T07:18:16;10.60;99.90
6843;DHT22;3460;52.028;8.916;2023-04-24T07:20:43;10.60;99.90
6843;DHT22;3460;52.028;8.916;2023-04-24T07:23:11;10.60;99.90
6843;DHT22;3460;52.028;8.916;2023-04-24T07:25:38;10.70;99.90
6843;DHT22;3460;52.028;8.916;2023-04-24T07:28:06;10.70;99.90
6843;DHT22;3460;52.028;8.916;2023-04-24T07:30:33;10.70;99.90
6843;DHT22;3460;52.028;8.916;2023-04-24T07:33:00;10.70;99.90
6843;DHT22;3460;52.028;8.916;2023-04-24T07:35:27;10.70;99.90
6843;DHT22;3460;52.028;8.916;2023-04-24T07:37:54;10.80;99.90
6843;DHT22;3460;52.028;8.916;2023-04-24T07:40:22;10.80;99.90
6843;DHT22;3460;52.028;8.916;2023-04-24T07:42:49;10.80;99.90
6843;DHT22;3460;52.028;8.916;2023-04-24T07:45:16;10.70;99.90
6843;DHT22;3460;52.028;8.916;2023-04-24T07:47:43;10.70;99.90
6843;DHT22;3460;52.028;8.916;2023-04-24T07:50:11;10.70;99.90
6843;DHT22;3460;52.028;8.916;2023-04-24T07:52:38;10.70;99.90
6843;DHT22;3460;52.028;8.916;2023-04-24T07:55:05;10.70;99.90
6843;DHT22;3460;52.028;8.916;2023-04-24T07:57:34;10.70;99.90
6843;DHT22;3460;52.028;8.916;2023-04-24T08:00:02;10.80;99.90
6843;DHT22;3460;52.028;8.916;2023-04-24T08:02:29;10.80;99.90
6843;DHT22;3460;52.028;8.916;2023-04-24T08:04:56;10.80;99.90
6843;DHT22;3460;52.028;8.916;2023-04-24T08:07:23;10.90;99.90
6843;DHT22;3460;52.028;8.916;2023-04-24T08:09:50;10.90;99.90
6843;DHT22;3460;52.028;8.916;2023-04-24T08:12:17;10.90;99.90
6843;DHT22;3460;52.028;8.916;2023-04-24T08:14:45;11.00;99.90
6843;DHT22;3460;52.028;8.916;2023-04-24T08:17:12;11.00;99.90
6843;DHT22;3460;52.028;8.916;2023-04-24T08:19:40;11.00;99.90
6843;DHT22;3460;52.028;8.916;2023-04-24T08:22:12;11.00;99.90
6843;DHT22;3460;52.028;8.916;2023-04-24T08:24:39;11.10;99.90
6843;DHT22;3460;52.028;8.916;2023-04-24T08:27:06;11.20;99.90
6843;DHT22;3460;52.028;8.916;2023-04-24T08:29:33;11.30;99.90
6843;DHT22;3460;52.028;8.916;2023-04-24T08:32:01;11.40;99.90
6843;DHT22;3460;52.028;8.916;2023-04-24T08:34:28;11.50;99.90
6843;DHT22;3460;52.028;8.916;2023-04-24T08:36:55;11.70;99.90
6843;DHT22;3460;52.028;8.916;2023-04-24T08:39:22;11.60;99.90
6843;DHT22;3460;52.028;8.916;2023-04-24T08:41:48;11.60;99.90
6843;DHT22;3460;52.028;8.916;2023-04-24T08:44:17;11.50;99.90
6843;DHT22;3460;52.028;8.916;2023-04-24T08:46:47;11.50;99.90
6843;DHT22;3460;52.028;8.916;2023-04-24T08:49:16;11.60;99.90
6843;DHT22;3460;52.028;8.916;2023-04-24T08:51:44;11.60;99.90
6843;DHT22;3460;52.028;8.916;2023-04-24T08:54:12;11.60;99.90
6843;DHT22;3460;52.028;8.916;2023-04-24T08:56:40;11.50;99.90
6843;DHT22;3460;52.028;8.916;2023-04-24T08:59:10;11.50;99.90
6843;DHT22;3460;52.028;8.916;2023-04-24T09:01:38;11.70;99.90
6843;DHT22;3460;52.028;8.916;2023-04-24T09:04:08;11.70;99.90
6843;DHT22;3460;52.028;8.916;2023-04-24T09:06:36;11.70;99.90
6843;DHT22;3460;52.028;8.916;2023-04-24T09:09:03;11.70;99.90
6843;DHT22;3460;52.028;8.916;2023-04-24T09:11:31;11.60;99.90
6843;DHT22;3460;52.028;8.916;2023-04-24T09:13:58;11.60;99.90
6843;DHT22;3460;52.028;8.916;2023-04-24T09:16:26;11.60;99.90
6843;DHT22;3460;52.028;8.916;2023-04-24T09:18:53;11.70;99.90
6843;DHT22;3460;52.028;8.916;2023-04-24T09:21:22;11.60;99.90
6843;DHT22;3460;52.028;8.916;2023-04-24T09:23:59;11.60;99.90
6843;DHT22;3460;52.028;8.916;2023-04-24T09:26:29;11.60;99.90
6843;DHT22;3460;52.028;8.916;2023-04-24T09:28:58;11.50;99.90
6843;DHT22;3460;52.028;8.916;2023-04-24T09:31:27;11.40;99.90
6843;DHT22;3460;52.028;8.916;2023-04-24T09:33:56;11.50;99.90
6843;DHT22;3460;52.028;8.916;2023-04-24T09:36:27;11.50;99.90
6843;DHT22;3460;52.028;8.916;2023-04-24T09:39:00;11.50;99.90
6843;DHT22;3460;52.028;8.916;2023-04-24T09:41:28;11.60;99.90
6843;DHT22;3460;52.028;8.916;2023-04-24T09:43:55;11.70;99.90
6843;DHT22;3460;52.028;8.916;2023-04-24T09:46:30;11.80;99.90
6843;DHT22;3460;52.028;8.916;2023-04-24T09:48:57;11.80;99.90
6843;DHT22;3460;52.028;8.916;2023-04-24T09:51:34;11.80;99.90
6843;DHT22;3460;52.028;8.916;2023-04-24T09:54:03;11.80;99.90
6843;DHT22;3460;52.028;8.916;2023-04-24T09:56:33;11.90;99.90
6843;DHT22;3460;52.028;8.916;2023-04-24T09:59:07;11.80;99.90
6843;DHT22;3460;52.028;8.916;2023-04-24T10:01:34;11.60;99.90
6843;DHT22;3460;52.028;8.916;2023-04-24T10:04:02;11.60;99.90
6843;DHT22;3460;52.028;8.916;2023-04-24T10:06:34;11.50;99.90
6843;DHT22;3460;52.028;8.916;2023-04-24T10:09:03;11.50;99.90
6843;DHT22;3460;52.028;8.916;2023-04-24T10:11:30;11.40;99.90
6843;DHT22;3460;52.028;8.916;2023-04-24T10:13:56;11.30;99.90
6843;DHT22;3460;52.028;8.916;2023-04-24T10:16:24;11.20;99.90
6843;DHT22;3460;52.028;8.916;2023-04-24T10:18:52;11.20;99.90
6843;DHT22;3460;52.028;8.916;2023-04-24T10:21:19;11.20;99.90
6843;DHT22;3460;52.028;8.916;2023-04-24T10:23:48;11.20;99.90
6843;DHT22;3460;52.028;8.916;2023-04-24T10:26:17;11.20;99.90
6843;DHT22;3460;52.028;8.916;2023-04-24T10:28:45;11.10;99.90
6843;DHT22;3460;52.028;8.916;2023-04-24T10:31:13;11.10;99.90
6843;DHT22;3460;52.028;8.916;2023-04-24T10:33:40;11.00;99.90
6843;DHT22;3460;52.028;8.916;2023-04-24T10:36:09;11.00;99.90
6843;DHT22;3460;52.028;8.916;2023-04-24T10:38:37;11.10;99.90
6843;DHT22;3460;52.028;8.916;2023-04-24T10:41:09;11.30;99.90
6843;DHT22;3460;52.028;8.916;2023-04-24T10:43:42;11.50;99.90
6843;DHT22;3460;52.028;8.916;2023-04-24T10:46:09;11.50;99.90
6843;DHT22;3460;52.028;8.916;2023-04-24T10:48:42;11.50;99.90
6843;DHT22;3460;52.028;8.916;2023-04-24T10:51:12;11.50;99.90
6843;DHT22;3460;52.028;8.916;2023-04-24T10:53:39;11.40;99.90
6843;DHT22;3460;52.028;8.916;2023-04-24T10:56:07;11.40;99.90
6843;DHT22;3460;52.028;8.916;2023-04-24T10:58:42;11.40;99.90
6843;DHT22;3460;52.028;8.916;2023-04-24T11:01:23;11.30;99.90
6843;DHT22;3460;52.028;8.916;2023-04-24T11:03:55;11.10;99.90
6843;DHT22;3460;52.028;8.916;2023-04-24T11:06:29;11.00;99.90
6843;DHT22;3460;52.028;8.916;2023-04-24T11:09:02;10.90;99.90
6843;DHT22;3460;52.028;8.916;2023-04-24T11:11:30;10.80;99.90
6843;DHT22;3460;52.028;8.916;2023-04-24T11:14:08;10.80;99.90
6843;DHT22;3460;52.028;8.916;2023-04-24T11:16:43;10.80;99.90
6843;DHT22;3460;52.028;8.916;2023-04-24T11:19:20;10.80;99.90
6843;DHT22;3460;52.028;8.916;2023-04-24T11:21:55;10.80;99.90
6843;DHT22;3460;52.028;8.916;2023-04-24T11:24:30;10.80;99.90
6843;DHT22;3460;52.028;8.916;2023-04-24T11:26:58;10.70;99.90
6843;DHT22;3460;52.028;8.916;2023-04-24T11:29:42;10.60;99.90
6843;DHT22;3460;52.028;8.916;2023-04-24T11:32:17;10.50;99.90
6843;DHT22;3460;52.028;8.916;2023-04-24T11:34:46;10.40;99.90
6843;DHT22;3460;52.028;8.916;2023-04-24T11:37:13;10.40;99.90
6843;DHT22;3460;52.028;8.916;2023-04-24T11:39:40;10.40;99.90
6843;DHT22;3460;52.028;8.916;2023-04-24T11:42:07;10.40;99.90
6843;DHT22;3460;52.028;8.916;2023-04-24T11:44:35;10.40;99.90
6843;DHT22;3460;52.028;8.916;2023-04-24T11:47:04;10.30;99.90
6843;DHT22;3460;52.028;8.916;2023-04-24T11:49:31;10.30;99.90
6843;DHT22;3460;52.028;8.916;2023-04-24T11:51:59;10.20;99.90
6843;DHT22;3460;52.028;8.916;2023-04-24T11:54:26;10.20;99.90
6843;DHT22;3460;52.028;8.916;2023-04-24T11:56:53;10.10;99.90
6843;DHT22;3460;52.028;8.916;2023-04-24T11:59:19;10.10;99.90
6843;DHT22;3460;52.028;8.916;2023-04-24T12:01:47;10.20;99.90
6843;DHT22;3460;52.028;8.916;2023-04-24T12:04:16;10.30;99.90
6843;DHT22;3460;52.028;8.916;2023-04-24T12:06:58;10.30;99.90
6843;DHT22;3460;52.028;8.916;2023-04-24T12:09:25;10.30;99.90
6843;DHT22;3460;52.028;8.916;2023-04-24T12:11:53;10.20;99.90
6843;DHT22;3460;52.028;8.916;2023-04-24T12:14:21;10.20;99.90
6843;DHT22;3460;52.028;8.916;2023-04-24T12:16:48;10.10;99.90
6843;DHT22;3460;52.028;8.916;2023-04-24T12:19:22;10.00;99.90
6843;DHT22;3460;52.028;8.916;2023-04-24T12:22:04;10.00;99.90
6843;DHT22;3460;52.028;8.916;2023-04-24T12:24:31;9.90;99.90
6843;DHT22;3460;52.028;8.916;2023-04-24T12:26:58;9.80;99.90
6843;DHT22;3460;52.028;8.916;2023-04-24T12:29:27;9.70;99.90
6843;DHT22;3460;52.028;8.916;2023-04-24T12:31:54;9.70;99.90
6843;DHT22;3460;52.028;8.916;2023-04-24T12:34:23;9.70;99.90
6843;DHT22;3460;52.028;8.916;2023-04-24T12:36:50;9.70;99.90
6843;DHT22;3460;52.028;8.916;2023-04-24T12:39:18;9.60;99.90
6843;DHT22;3460;52.028;8.916;2023-04-24T12:41:55;9.60;99.90
6843;DHT22;3460;52.028;8.916;2023-04-24T12:44:29;9.70;99.90
6843;DHT22;3460;52.028;8.916;2023-04-24T12:46:57;9.60;99.90
6843;DHT22;3460;52.028;8.916;2023-04-24T12:49:25;9.60;99.90
6843;DHT22;3460;52.028;8.916;2023-04-24T12:51:52;9.60;99.90
6843;DHT22;3460;52.028;8.916;2023-04-24T12:54:19;9.60;99.90
6843;DHT22;3460;52.028;8.916;2023-04-24T12:56:46;9.40;99.90
6843;DHT22;3460;52.028;8.916;2023-04-24T12:59:13;9.40;99.90
6843;DHT22;3460;52.028;8.916;2023-04-24T13:04:06;9.40;99.90
6843;DHT22;3460;52.028;8.916;2023-04-24T13:06:34;9.30;99.90
6843;DHT22;3460;52.028;8.916;2023-04-24T13:09:01;9.20;99.90
6843;DHT22;3460;52.028;8.916;2023-04-24T13:11:28;9.20;99.90
6843;DHT22;3460;52.028;8.916;2023-04-24T13:13:55;9.10;99.90
6843;DHT22;3460;52.028;8.916;2023-04-24T13:16:22;9.10;99.90
6843;DHT22;3460;52.028;8.916;2023-04-24T13:18:49;9.00;99.90
6843;DHT22;3460;52.028;8.916;2023-04-24T13:21:16;9.10;99.90
6843;DHT22;3460;52.028;8.916;2023-04-24T13:23:44;9.10;99.90
6843;DHT22;3460;52.028;8.916;2023-04-24T13:26:11;9.10;99.90
6843;DHT22;3460;52.028;8.916;2023-04-24T13:28:38;9.20;99.90
6843;DHT22;3460;52.028;8.916;2023-04-24T13:31:05;9.20;99.90
6843;DHT22;3460;52.028;8.916;2023-04-24T13:33:32;9.20;99.90
6843;DHT22;3460;52.028;8.916;2023-04-24T13:35:59;9.20;99.90
6843;DHT22;3460;52.028;8.916;2023-04-24T13:38:25;9.20;99.90
6843;DHT22;3460;52.028;8.916;2023-04-24T13:40:54;9.10;99.90
6843;DHT22;3460;52.028;8.916;2023-04-24T13:43:20;9.10;99.90
6843;DHT22;3460;52.028;8.916;2023-04-24T13:45:47;9.10;99.90
6843;DHT22;3460;52.028;8.916;2023-04-24T13:48:14;9.10;99.90
6843;DHT22;3460;52.028;8.916;2023-04-24T13:50:41;9.10;99.90
6843;DHT22;3460;52.028;8.916;2023-04-24T13:53:08;9.10;99.90
6843;DHT22;3460;52.028;8.916;2023-04-24T13:55:35;9.10;99.90
6843;DHT22;3460;52.028;8.916;2023-04-24T13:58:04;9.10;99.90
6843;DHT22;3460;52.028;8.916;2023-04-24T14:00:31;9.10;99.90
6843;DHT22;3460;52.028;8.916;2023-04-24T14:02:57;9.10;99.90
6843;DHT22;3460;52.028;8.916;2023-04-24T14:05:24;9.00;99.90
6843;DHT22;3460;52.028;8.916;2023-04-24T14:07:51;9.00;99.90
6843;DHT22;3460;52.028;8.916;2023-04-24T14:10:18;8.90;99.90
6843;DHT22;3460;52.028;8.916;2023-04-24T14:12:45;8.90;99.90
6843;DHT22;3460;52.028;8.916;2023-04-24T14:15:13;8.90;99.90
6843;DHT22;3460;52.028;8.916;2023-04-24T14:17:40;8.90;99.90
6843;DHT22;3460;52.028;8.916;2023-04-24T14:20:08;8.80;99.90
6843;DHT22;3460;52.028;8.916;2023-04-24T14:22:35;8.80;99.90
6843;DHT22;3460;52.028;8.916;2023-04-24T14:25:02;8.80;99.90
6843;DHT22;3460;52.028;8.916;2023-04-24T14:27:29;8.80;99.90
6843;DHT22;3460;52.028;8.916;2023-04-24T14:29:56;8.80;99.90
6843;DHT22;3460;52.028;8.916;2023-04-24T14:32:24;8.90;99.90
6843;DHT22;3460;52.028;8.916;2023-04-24T14:34:51;8.80;99.90
6843;DHT22;3460;52.028;8.916;2023-04-24T14:37:19;8.80;99.90
6843;DHT22;3460;52.028;8.916;2023-04-24T14:39:46;8.80;99.90
6843;DHT22;3460;52.028;8.916;2023-04-24T14:42:13;8.90;99.90
6843;DHT22;3460;52.028;8.916;2023-04-24T14:44:39;8.80;99.90
6843;DHT22;3460;52.028;8.916;2023-04-24T14:47:06;8.80;99.90
6843;DHT22;3460;52.028;8.916;2023-04-24T14:49:34;8.80;99.90
6843;DHT22;3460;52.028;8.916;2023-04-24T14:52:01;8.80;99.90
6843;DHT22;3460;52.028;8.916;2023-04-24T14:54:28;8.90;99.90
6843;DHT22;3460;52.028;8.916;2023-04-24T14:56:56;8.90;99.90
6843;DHT22;3460;52.028;8.916;2023-04-24T14:59:23;9.00;99.90
6843;DHT22;3460;52.028;8.916;2023-04-24T15:01:50;9.10;99.90
6843;DHT22;3460;52.028;8.916;2023-04-24T15:04:18;9.10;99.90
6843;DHT22;3460;52.028;8.916;2023-04-24T15:06:48;9.20;99.90
6843;DHT22;3460;52.028;8.916;2023-04-24T15:09:15;9.20;99.90
6843;DHT22;3460;52.028;8.916;2023-04-24T15:11:44;9.20;99.90
6843;DHT22;3460;52.028;8.916;2023-04-24T15:14:11;9.20;99.90
6843;DHT22;3460;52.028;8.916;2023-04-24T15:16:38;9.10;99.90
6843;DHT22;3460;52.028;8.916;2023-04-24T15:19:05;9.10;99.90
6843;DHT22;3460;52.028;8.916;2023-04-24T15:21:32;9.10;99.90
6843;DHT22;3460;52.028;8.916;2023-04-24T15:24:00;9.10;99.90
6843;DHT22;3460;52.028;8.916;2023-04-24T15:26:27;9.10;99.90
6843;DHT22;3460;52.028;8.916;2023-04-24T15:28:54;9.00;99.90
6843;DHT22;3460;52.028;8.916;2023-04-24T15:31:21;9.00;99.90
6843;DHT22;3460;52.028;8.916;2023-04-24T15:33:48;9.00;99.90
6843;DHT22;3460;52.028;8.916;2023-04-24T15:36:16;8.90;99.90
6843;DHT22;3460;52.028;8.916;2023-04-24T15:38:43;8.90;99.90
6843;DHT22;3460;52.028;8.916;2023-04-24T15:41:12;8.90;99.90
6843;DHT22;3460;52.028;8.916;2023-04-24T15:43:39;9.00;99.90
6843;DHT22;3460;52.028;8.916;2023-04-24T15:46:07;9.00;99.90
6843;DHT22;3460;52.028;8.916;2023-04-24T15:48:34;9.00;99.90
6843;DHT22;3460;52.028;8.916;2023-04-24T15:51:01;9.00;99.90
6843;DHT22;3460;52.028;8.916;2023-04-24T15:53:28;9.00;99.90
6843;DHT22;3460;52.028;8.916;2023-04-24T15:55:54;8.90;99.90
6843;DHT22;3460;52.028;8.916;2023-04-24T15:58:24;8.90;99.90
6843;DHT22;3460;52.028;8.916;2023-04-24T16:00:51;9.00;99.90
6843;DHT22;3460;52.028;8.916;2023-04-24T16:03:19;9.00;99.90
6843;DHT22;3460;52.028;8.916;2023-04-24T16:05:46;9.00;99.90
6843;DHT22;3460;52.028;8.916;2023-04-24T16:08:12;8.90;99.90
6843;DHT22;3460;52.028;8.916;2023-04-24T16:10:40;8.90;99.90